createdAt,value
2022-12-03T00:00:13.595Z,13.93
2022-12-03T00:02:42.025Z,14.43
2022-12-03T00:05:10.738Z,14.33
2022-12-03T00:07:38.783Z,13.40
2022-12-03T00:10:10.128Z,14.27
2022-12-03T00:12:38.199Z,13.37
2022-12-03T00:15:07.437Z,13.93
2022-12-03T00:17:35.427Z,14.10
2022-12-03T00:20:03.522Z,14.13
2022-12-03T00:22:31.518Z,15.63
2022-12-03T00:24:59.520Z,13.83
2022-12-03T00:27:29.373Z,14.87
2022-12-03T00:29:57.368Z,14.07
2022-12-03T00:32:25.377Z,14.67
2022-12-03T00:34:53.727Z,14.17
2022-12-03T00:37:21.977Z,14.13
2022-12-03T00:39:50.381Z,13.43
2022-12-03T00:42:18.451Z,14.57
2022-12-03T00:44:47.814Z,13.63
2022-12-03T00:47:15.833Z,14.87
2022-12-03T00:49:43.811Z,14.23
2022-12-03T00:52:11.768Z,14.40
2022-12-03T00:54:39.785Z,13.60
2022-12-03T00:57:07.752Z,13.77
2022-12-03T00:59:35.729Z,13.43
2022-12-03T01:02:05.314Z,14.30
2022-12-03T01:04:33.787Z,14.20
2022-12-03T01:07:02.015Z,14.40
2022-12-03T01:09:30.053Z,12.70
2022-12-03T01:11:58.086Z,14.13
2022-12-03T01:14:26.098Z,13.57
2022-12-03T01:16:54.087Z,13.37
2022-12-03T01:19:24.269Z,13.83
2022-12-03T01:21:53.200Z,13.80
2022-12-03T01:24:21.476Z,14.00
2022-12-03T01:26:49.510Z,13.60
2022-12-03T01:29:17.578Z,14.20
2022-12-03T01:32:03.232Z,14.00
2022-12-03T01:34:32.641Z,12.67
2022-12-03T01:37:00.612Z,12.90
2022-12-03T01:39:28.688Z,14.13
2022-12-03T01:41:58.684Z,15.00
2022-12-03T01:44:29.238Z,13.90
2022-12-03T01:46:59.647Z,13.90
2022-12-03T01:49:30.231Z,14.30
2022-12-03T01:52:01.113Z,14.30
2022-12-03T01:54:34.919Z,14.87
2022-12-03T01:57:03.994Z,14.40
2022-12-03T01:59:36.472Z,14.83
2022-12-03T02:02:13.567Z,13.40
2022-12-03T02:04:41.727Z,13.00
2022-12-03T02:07:25.863Z,13.90
2022-12-03T02:09:54.880Z,14.00
2022-12-03T02:12:28.412Z,13.40
2022-12-03T02:14:56.912Z,14.83
2022-12-03T02:17:26.332Z,14.50
2022-12-03T02:19:55.427Z,12.77
2022-12-03T02:22:33.508Z,13.37
2022-12-03T02:25:15.393Z,14.03
2022-12-03T02:27:43.941Z,13.63
2022-12-03T02:30:14.169Z,14.17
2022-12-03T02:32:42.295Z,13.97
2022-12-03T02:35:14.966Z,13.07
2022-12-03T02:37:45.008Z,12.80
2022-12-03T02:40:19.137Z,13.70
2022-12-03T02:42:51.202Z,13.63
2022-12-03T02:45:22.155Z,13.13
2022-12-03T02:47:56.038Z,14.83
2022-12-03T02:50:28.119Z,15.07
2022-12-03T02:52:59.465Z,13.70
2022-12-03T02:55:36.318Z,13.20
2022-12-03T02:58:06.068Z,14.23
2022-12-03T03:00:35.299Z,14.77
2022-12-03T03:03:04.708Z,13.77
2022-12-03T03:05:34.421Z,14.70
2022-12-03T03:08:03.300Z,14.27
2022-12-03T03:10:35.449Z,14.73
2022-12-03T03:13:07.092Z,14.13
2022-12-03T03:15:37.080Z,14.10
2022-12-03T03:18:05.319Z,13.90
2022-12-03T03:20:33.681Z,13.53
2022-12-03T03:23:08.040Z,13.67
2022-12-03T03:25:38.027Z,14.57
2022-12-03T03:28:06.925Z,14.30
2022-12-03T03:30:36.253Z,14.20
2022-12-03T03:33:04.385Z,14.87
2022-12-03T03:35:32.626Z,14.33
2022-12-03T03:38:00.943Z,14.13
2022-12-03T03:40:29.538Z,14.07
2022-12-03T03:42:59.188Z,13.60
2022-12-03T03:45:29.665Z,15.70
2022-12-03T03:48:00.025Z,14.53
2022-12-03T03:50:32.493Z,13.90
2022-12-03T03:53:02.463Z,15.20
2022-12-03T03:55:31.114Z,16.30
2022-12-03T03:58:00.677Z,13.70
2022-12-03T04:00:28.753Z,14.37
2022-12-03T04:02:56.772Z,14.73
2022-12-03T04:05:25.740Z,14.13
2022-12-03T04:07:53.850Z,14.93
2022-12-03T04:10:39.401Z,14.97
2022-12-03T04:13:08.751Z,14.77
2022-12-03T04:15:36.749Z,14.60
2022-12-03T04:18:22.527Z,15.83
2022-12-03T04:20:50.540Z,15.83
2022-12-03T04:23:17.510Z,16.07
2022-12-03T04:26:03.071Z,15.30
2022-12-03T04:28:50.455Z,15.27
2022-12-03T04:31:35.929Z,14.83
2022-12-03T04:34:21.463Z,15.40
2022-12-03T04:36:49.553Z,15.07
2022-12-03T04:39:17.569Z,16.23
2022-12-03T04:41:45.612Z,15.80
2022-12-03T04:44:32.436Z,16.27
2022-12-03T04:47:00.457Z,16.10
2022-12-03T04:49:28.478Z,15.60
2022-12-03T04:51:56.481Z,14.93
2022-12-03T04:54:24.685Z,16.10
2022-12-03T04:56:52.748Z,16.97
2022-12-03T04:59:22.310Z,16.43
2022-12-03T05:01:50.380Z,16.27
2022-12-03T05:04:18.693Z,15.67
2022-12-03T05:06:46.754Z,16.17
2022-12-03T05:09:15.277Z,16.63
2022-12-03T05:11:43.891Z,16.47
2022-12-03T05:14:12.573Z,16.73
2022-12-03T05:16:42.127Z,17.13
2022-12-03T05:19:10.149Z,16.00
2022-12-03T05:21:37.153Z,16.67
2022-12-03T05:24:05.885Z,15.73
2022-12-03T05:26:33.905Z,16.17
2022-12-03T05:29:02.569Z,16.27
2022-12-03T05:31:30.627Z,16.17
2022-12-03T05:34:00.025Z,17.07
2022-12-03T05:36:28.122Z,16.93
2022-12-03T05:38:56.113Z,15.53
2022-12-03T05:41:41.493Z,15.20
2022-12-03T05:44:09.565Z,16.23
2022-12-03T05:46:37.612Z,15.67
2022-12-03T05:49:07.032Z,16.80
2022-12-03T05:51:35.019Z,17.27
2022-12-03T05:54:03.451Z,17.67
2022-12-03T05:56:31.431Z,17.17
2022-12-03T05:58:59.414Z,17.57
2022-12-03T06:01:27.400Z,17.20
2022-12-03T06:03:55.459Z,18.73
2022-12-03T06:06:24.826Z,18.33
2022-12-03T06:08:52.845Z,18.83
2022-12-03T06:11:20.898Z,16.27
2022-12-03T06:13:48.892Z,18.00
2022-12-03T06:16:16.975Z,18.40
2022-12-03T06:18:44.991Z,18.03
2022-12-03T06:21:12.985Z,18.10
2022-12-03T06:23:44.938Z,18.73
2022-12-03T06:26:13.133Z,16.77
2022-12-03T06:28:45.573Z,19.43
2022-12-03T06:31:13.691Z,19.23
2022-12-03T06:33:41.721Z,19.70
2022-12-03T06:36:10.097Z,19.90
2022-12-03T06:38:38.077Z,20.20
2022-12-03T06:41:07.492Z,21.57
2022-12-03T06:43:35.458Z,19.90
2022-12-03T06:46:03.530Z,21.23
2022-12-03T06:48:31.532Z,20.07
2022-12-03T06:50:59.544Z,20.27
2022-12-03T06:53:27.596Z,20.93
2022-12-03T06:55:55.589Z,19.57
2022-12-03T06:58:24.998Z,22.30
2022-12-03T07:00:53.125Z,20.57
2022-12-03T07:03:21.185Z,20.60
2022-12-03T07:05:49.234Z,20.37
2022-12-03T07:08:17.404Z,20.17
2022-12-03T07:10:45.443Z,19.70
2022-12-03T07:13:13.441Z,20.33
2022-12-03T07:15:42.883Z,18.70
2022-12-03T07:18:11.712Z,18.93
2022-12-03T07:20:39.855Z,18.67
2022-12-03T07:23:07.947Z,18.93
2022-12-03T07:25:36.113Z,19.53
2022-12-03T07:28:04.324Z,18.33
2022-12-03T07:30:32.425Z,19.30
2022-12-03T07:33:01.769Z,19.73
2022-12-03T07:35:29.771Z,20.00
2022-12-03T07:37:57.882Z,19.93
2022-12-03T07:40:25.919Z,18.57
2022-12-03T07:42:54.240Z,20.70
2022-12-03T07:45:22.363Z,20.37
2022-12-03T07:47:50.465Z,18.03
2022-12-03T07:50:19.886Z,20.50
2022-12-03T07:52:48.016Z,19.07
2022-12-03T07:55:16.828Z,18.17
2022-12-03T07:57:45.322Z,19.63
2022-12-03T08:00:14.604Z,19.70
2022-12-03T08:02:42.728Z,19.17
2022-12-03T08:05:11.420Z,19.60
2022-12-03T08:07:40.876Z,19.60
2022-12-03T08:10:09.648Z,18.80
2022-12-03T08:12:42.766Z,17.80
2022-12-03T08:15:15.992Z,20.83
2022-12-03T08:17:45.689Z,19.30
2022-12-03T08:20:17.216Z,18.77
2022-12-03T08:22:48.377Z,20.00
2022-12-03T08:25:21.053Z,20.50
2022-12-03T08:27:49.426Z,18.70
2022-12-03T08:30:22.872Z,19.13
2022-12-03T08:32:52.180Z,17.90
2022-12-03T08:35:25.138Z,18.53
2022-12-03T08:38:00.384Z,20.03
2022-12-03T08:40:35.204Z,18.40
2022-12-03T08:43:08.489Z,18.60
2022-12-03T08:45:41.346Z,18.07
2022-12-03T08:48:23.409Z,19.30
2022-12-03T08:50:51.548Z,19.40
2022-12-03T08:53:29.700Z,17.97
2022-12-03T08:55:58.825Z,18.43
2022-12-03T08:58:34.297Z,18.63
2022-12-03T09:01:17.367Z,20.37
2022-12-03T09:03:50.323Z,19.00
2022-12-03T09:06:18.785Z,18.70
2022-12-03T09:08:48.629Z,19.67
2022-12-03T09:11:16.843Z,20.20
2022-12-03T09:13:44.903Z,18.70
2022-12-03T09:16:13.628Z,18.30
2022-12-03T09:18:42.757Z,17.90
2022-12-03T09:21:11.777Z,19.47
2022-12-03T09:23:40.794Z,18.67
2022-12-03T09:26:10.410Z,18.53
2022-12-03T09:28:38.537Z,20.33
2022-12-03T09:31:07.063Z,19.07
2022-12-03T09:33:35.423Z,18.77
2022-12-03T09:36:03.612Z,18.00
2022-12-03T09:38:31.630Z,19.60
2022-12-03T09:41:00.745Z,19.60
2022-12-03T09:44:02.728Z,18.00
2022-12-03T09:46:23.530Z,17.17
2022-12-03T09:48:51.805Z,18.40
2022-12-03T09:51:20.893Z,18.27
2022-12-03T09:53:49.008Z,19.40
2022-12-03T09:56:23.019Z,17.97
2022-12-03T09:58:52.513Z,16.97
2022-12-03T10:01:23.278Z,18.37
2022-12-03T10:03:53.804Z,18.63
2022-12-03T10:06:24.490Z,18.20
2022-12-03T10:08:55.044Z,18.07
2022-12-03T10:11:26.146Z,18.47
2022-12-03T10:13:57.663Z,18.83
2022-12-03T10:16:27.939Z,18.73
2022-12-03T10:19:00.281Z,19.40
2022-12-03T10:21:32.062Z,18.20
2022-12-03T10:24:19.919Z,19.57
2022-12-03T10:26:49.250Z,18.47
2022-12-03T10:29:21.651Z,18.20
2022-12-03T10:31:57.687Z,18.43
2022-12-03T10:34:27.145Z,19.17
2022-12-03T10:37:13.375Z,18.33
2022-12-03T10:39:56.308Z,18.73
2022-12-03T10:42:25.745Z,19.03
2022-12-03T10:45:20.464Z,19.07
2022-12-03T10:48:07.491Z,18.60
2022-12-03T10:50:36.376Z,19.00
2022-12-03T10:53:05.159Z,18.53
2022-12-03T10:55:38.741Z,18.93
2022-12-03T10:58:06.737Z,18.27
2022-12-03T11:00:36.404Z,18.43
2022-12-03T11:03:04.431Z,19.00
2022-12-03T11:05:32.501Z,16.97
2022-12-03T11:08:00.642Z,18.27
2022-12-03T11:10:28.713Z,17.20
2022-12-03T11:13:28.075Z,18.57
2022-12-03T11:15:59.483Z,18.83
2022-12-03T11:19:02.440Z,19.20
2022-12-03T11:21:30.979Z,18.43
2022-12-03T11:24:18.322Z,18.37
2022-12-03T11:27:20.653Z,16.87
2022-12-03T11:29:53.996Z,17.67
2022-12-03T11:33:09.680Z,18.07
2022-12-03T11:36:15.323Z,16.87
2022-12-03T11:38:53.630Z,17.87
2022-12-03T11:41:30.602Z,16.73
2022-12-03T11:44:28.255Z,16.30
2022-12-03T11:46:58.930Z,15.80
2022-12-03T11:49:46.816Z,16.80
2022-12-03T11:52:26.456Z,16.50
2022-12-03T11:54:58.544Z,16.80
2022-12-03T11:57:38.471Z,16.93
2022-12-03T12:00:19.492Z,16.60
2022-12-03T12:02:48.574Z,14.90
2022-12-03T12:05:22.990Z,15.07
2022-12-03T12:07:53.337Z,16.30
2022-12-03T12:10:41.413Z,16.93
2022-12-03T12:13:55.484Z,17.27
2022-12-03T12:16:45.734Z,15.43
2022-12-03T12:19:37.479Z,17.07
2022-12-03T12:22:35.639Z,16.37
2022-12-03T12:25:06.803Z,15.07
2022-12-03T12:27:37.891Z,15.67
2022-12-03T12:30:08.729Z,15.50
2022-12-03T12:32:45.004Z,14.97
2022-12-03T12:35:19.474Z,14.70
2022-12-03T12:37:58.939Z,13.87
2022-12-03T12:40:31.882Z,14.20
2022-12-03T12:43:05.571Z,14.57
2022-12-03T12:45:41.120Z,14.43
2022-12-03T12:48:17.200Z,14.10
2022-12-03T12:50:46.982Z,14.60
2022-12-03T12:53:22.955Z,15.13
2022-12-03T12:55:56.785Z,14.63
2022-12-03T12:58:25.166Z,14.87
2022-12-03T13:00:55.293Z,15.17
2022-12-03T13:03:25.723Z,14.13
2022-12-03T13:05:54.669Z,14.43
2022-12-03T13:08:26.675Z,14.83
2022-12-03T13:10:57.237Z,16.20
2022-12-03T13:13:31.725Z,14.93
2022-12-03T13:16:03.743Z,16.00
2022-12-03T13:18:35.235Z,14.23
2022-12-03T13:21:20.617Z,14.20
2022-12-03T13:23:49.025Z,14.20
2022-12-03T13:26:34.619Z,13.50
2022-12-03T13:29:11.996Z,13.00
2022-12-03T13:31:43.777Z,13.90
2022-12-03T13:34:17.509Z,14.30
2022-12-03T13:36:51.945Z,14.10
2022-12-03T13:39:28.996Z,14.23
2022-12-03T13:42:16.972Z,14.73
2022-12-03T13:44:46.714Z,15.07
2022-12-03T13:47:17.075Z,13.60
2022-12-03T13:49:52.128Z,13.43
2022-12-03T13:52:22.593Z,14.33
2022-12-03T13:54:53.518Z,14.47
2022-12-03T13:57:24.530Z,14.33
2022-12-03T13:59:52.957Z,15.10
2022-12-03T14:02:21.293Z,15.63
2022-12-03T14:04:49.433Z,14.20
2022-12-03T14:07:17.703Z,14.03
2022-12-03T14:09:45.728Z,13.67
2022-12-03T14:12:33.425Z,14.57
2022-12-03T14:15:03.308Z,14.23
2022-12-03T14:17:31.852Z,13.27
2022-12-03T14:20:01.646Z,14.20
2022-12-03T14:22:29.695Z,15.60
2022-12-03T14:24:58.077Z,14.57
2022-12-03T14:27:27.680Z,14.60
2022-12-03T14:29:56.102Z,12.90
2022-12-03T14:32:26.157Z,14.20
2022-12-03T14:34:54.223Z,13.40
2022-12-03T14:37:22.305Z,14.33
2022-12-03T14:39:50.287Z,13.87
2022-12-03T14:42:18.368Z,14.67
2022-12-03T14:44:47.901Z,14.70
2022-12-03T14:47:18.098Z,14.53
2022-12-03T14:49:47.613Z,13.60
2022-12-03T14:52:15.737Z,13.77
2022-12-03T14:54:43.843Z,13.73
2022-12-03T14:57:12.721Z,13.13
2022-12-03T14:59:41.289Z,13.70
2022-12-03T15:02:09.970Z,14.40
2022-12-03T15:04:38.284Z,14.63
2022-12-03T15:07:08.162Z,14.53
2022-12-03T15:09:36.527Z,13.87
2022-12-03T15:12:05.536Z,14.03
2022-12-03T15:14:33.643Z,15.07
2022-12-03T15:17:01.701Z,13.93
2022-12-03T15:19:30.956Z,13.37
2022-12-03T15:21:59.986Z,13.70
2022-12-03T15:24:29.412Z,14.43
2022-12-03T15:26:57.835Z,13.57
2022-12-03T15:29:25.947Z,14.03
2022-12-03T15:31:53.980Z,14.73
2022-12-03T15:34:23.068Z,14.60
2022-12-03T15:36:51.406Z,13.80
2022-12-03T15:39:19.436Z,14.20
2022-12-03T15:41:48.949Z,13.67
2022-12-03T15:44:16.973Z,14.60
2022-12-03T15:46:45.012Z,14.53
2022-12-03T15:49:13.105Z,16.17
2022-12-03T15:51:41.104Z,15.47
2022-12-03T15:54:09.112Z,15.43
2022-12-03T15:56:37.568Z,14.90
2022-12-03T15:59:07.167Z,15.87
2022-12-03T16:01:35.219Z,15.83
2022-12-03T16:04:03.481Z,15.87
2022-12-03T16:06:31.497Z,15.53
2022-12-03T16:08:59.632Z,16.83
2022-12-03T16:11:27.656Z,15.80
2022-12-03T16:13:55.664Z,15.77
2022-12-03T16:16:25.030Z,15.50
2022-12-03T16:18:53.063Z,14.40
2022-12-03T16:21:26.477Z,15.33
2022-12-03T16:23:55.025Z,15.87
2022-12-03T16:26:23.271Z,16.00
2022-12-03T16:28:51.284Z,15.47
2022-12-03T16:31:19.977Z,14.83
2022-12-03T16:33:50.019Z,14.63
2022-12-03T16:36:18.083Z,14.13
2022-12-03T16:38:46.089Z,15.03
2022-12-03T16:41:14.120Z,14.93
2022-12-03T16:43:45.364Z,14.17
2022-12-03T16:46:26.083Z,14.37
2022-12-03T16:48:57.906Z,15.37
2022-12-03T16:51:26.766Z,14.10
2022-12-03T16:53:55.728Z,14.10
2022-12-03T16:56:23.818Z,14.77
2022-12-03T16:58:51.958Z,14.40
2022-12-03T17:01:20.143Z,14.07
2022-12-03T17:03:48.193Z,13.53
2022-12-03T17:06:17.604Z,13.20
2022-12-03T17:08:49.331Z,13.27
2022-12-03T17:11:18.412Z,13.40
2022-12-03T17:13:46.417Z,13.33
2022-12-03T17:16:14.615Z,12.43
2022-12-03T17:18:42.880Z,13.17
2022-12-03T17:21:11.045Z,12.27
2022-12-03T17:23:40.437Z,11.67
2022-12-03T17:26:08.445Z,13.50
2022-12-03T17:28:36.622Z,12.60
2022-12-03T17:31:04.681Z,11.83
2022-12-03T17:33:32.763Z,12.93
2022-12-03T17:36:01.436Z,12.93
2022-12-03T17:38:34.000Z,13.80
2022-12-03T17:41:07.331Z,13.27
2022-12-03T17:43:35.329Z,12.83
2022-12-03T17:46:05.023Z,14.87
2022-12-03T17:48:35.563Z,12.77
2022-12-03T17:51:03.613Z,12.97
2022-12-03T17:53:31.646Z,13.50
2022-12-03T17:55:59.619Z,13.83
2022-12-03T17:58:29.050Z,12.80
2022-12-03T18:01:02.170Z,13.23
2022-12-03T18:03:31.054Z,11.70
2022-12-03T18:05:59.110Z,13.10
2022-12-03T18:08:27.106Z,13.10
2022-12-03T18:10:55.203Z,12.23
2022-12-03T18:13:23.296Z,12.20
2022-12-03T18:15:52.749Z,12.97
2022-12-03T18:18:21.025Z,14.40
2022-12-03T18:20:49.033Z,15.10
2022-12-03T18:23:17.090Z,13.77
2022-12-03T18:25:45.205Z,14.17
2022-12-03T18:28:13.225Z,13.53
2022-12-03T18:30:41.274Z,13.67
2022-12-03T18:33:10.723Z,12.83
2022-12-03T18:35:38.802Z,12.93
2022-12-03T18:38:07.705Z,13.87
2022-12-03T18:40:35.733Z,13.93
2022-12-03T18:43:03.731Z,13.50
2022-12-03T18:45:31.740Z,13.60
2022-12-03T18:47:59.907Z,12.90
2022-12-03T18:50:30.531Z,13.60
2022-12-03T18:52:58.529Z,13.50
2022-12-03T18:55:30.491Z,13.73
2022-12-03T18:57:58.505Z,12.80
2022-12-03T19:00:26.659Z,13.73
2022-12-03T19:03:03.168Z,13.00
2022-12-03T19:05:34.560Z,13.27
2022-12-03T19:08:03.777Z,12.07
2022-12-03T19:10:31.958Z,14.13
2022-12-03T19:12:59.980Z,13.80
2022-12-03T19:15:27.983Z,12.80
2022-12-03T19:17:56.040Z,13.47
2022-12-03T19:20:24.111Z,13.50
2022-12-03T19:22:53.492Z,14.40
2022-12-03T19:25:21.458Z,14.53
2022-12-03T19:27:50.759Z,15.17
2022-12-03T19:30:19.095Z,16.43
2022-12-03T19:32:48.612Z,18.27
2022-12-03T19:35:16.679Z,19.80
2022-12-03T19:37:46.264Z,20.73
2022-12-03T19:40:16.241Z,21.37
2022-12-03T19:42:44.289Z,21.30
2022-12-03T19:45:12.752Z,23.53
2022-12-03T19:47:41.360Z,20.47
2022-12-03T19:50:10.765Z,23.47
2022-12-03T19:52:38.781Z,22.20
2022-12-03T19:55:07.303Z,21.97
2022-12-03T19:57:36.643Z,22.63
2022-12-03T20:00:06.652Z,23.10
2022-12-03T20:02:40.358Z,23.37
2022-12-03T20:05:08.577Z,21.57
2022-12-03T20:07:36.686Z,22.90
2022-12-03T20:10:05.816Z,22.87
2022-12-03T20:12:35.830Z,24.50
2022-12-03T20:15:03.913Z,24.93
2022-12-03T20:17:32.045Z,22.80
2022-12-03T20:20:00.044Z,22.70
2022-12-03T20:22:28.065Z,24.40
2022-12-03T20:24:56.075Z,23.30
2022-12-03T20:27:24.091Z,24.60
2022-12-03T20:29:53.657Z,25.33
2022-12-03T20:32:22.043Z,24.80
2022-12-03T20:34:50.207Z,23.17
2022-12-03T20:37:18.564Z,23.10
2022-12-03T20:39:46.579Z,23.30
2022-12-03T20:42:14.593Z,25.37
2022-12-03T20:44:42.652Z,24.90
2022-12-03T20:47:12.003Z,24.87
2022-12-03T20:49:40.248Z,25.93
2022-12-03T20:52:08.273Z,24.83
2022-12-03T20:54:36.299Z,23.00
2022-12-03T20:57:04.630Z,24.60
2022-12-03T20:59:32.812Z,24.27
2022-12-03T21:02:00.916Z,24.07
2022-12-03T21:04:30.399Z,24.00
2022-12-03T21:06:58.491Z,24.93
2022-12-03T21:09:26.524Z,24.07
2022-12-03T21:11:54.528Z,24.40
2022-12-03T21:14:22.628Z,25.87
2022-12-03T21:17:07.708Z,26.63
2022-12-03T21:19:38.512Z,26.23
2022-12-03T21:22:06.838Z,24.30
2022-12-03T21:24:35.302Z,26.93
2022-12-03T21:27:03.576Z,27.00
2022-12-03T21:29:31.684Z,25.93
2022-12-03T21:31:59.700Z,25.27
2022-12-03T21:34:34.188Z,26.73
2022-12-03T21:37:05.328Z,26.17
2022-12-03T21:39:33.596Z,27.00
2022-12-03T21:42:18.775Z,25.33
2022-12-03T21:44:49.703Z,26.33
2022-12-03T21:47:17.807Z,27.10
2022-12-03T21:49:45.871Z,27.70
2022-12-03T21:52:15.274Z,26.80
2022-12-03T21:54:43.388Z,25.60
2022-12-03T21:57:11.420Z,26.63
2022-12-03T21:59:39.429Z,26.23
2022-12-03T22:02:07.805Z,24.57
2022-12-03T22:04:35.876Z,24.93
2022-12-03T22:07:04.624Z,25.93
2022-12-03T22:09:34.315Z,25.70
2022-12-03T22:12:02.366Z,25.23
2022-12-03T22:14:30.769Z,27.13
2022-12-03T22:16:58.791Z,27.13
2022-12-03T22:19:27.610Z,28.63
2022-12-03T22:21:55.662Z,29.27
2022-12-03T22:24:24.042Z,24.90
2022-12-03T22:26:54.780Z,26.23
2022-12-03T22:29:22.891Z,29.63
2022-12-03T22:31:51.034Z,28.03
2022-12-03T22:34:19.145Z,28.00
2022-12-03T22:36:47.151Z,30.70
2022-12-03T22:39:15.151Z,27.47
2022-12-03T22:41:43.229Z,29.67
2022-12-03T22:44:12.603Z,27.47
2022-12-03T22:46:40.675Z,29.30
2022-12-03T22:49:08.724Z,29.40
2022-12-03T22:51:37.109Z,29.27
2022-12-03T22:54:05.624Z,29.73
2022-12-03T22:56:34.232Z,28.40
2022-12-03T22:59:02.804Z,30.20
2022-12-03T23:01:33.821Z,30.23
2022-12-03T23:04:02.664Z,29.30
2022-12-03T23:06:31.691Z,29.13
2022-12-03T23:09:00.159Z,29.10
2022-12-03T23:11:28.649Z,29.80
2022-12-03T23:13:56.685Z,27.77
2022-12-03T23:16:28.355Z,30.17
2022-12-03T23:18:58.746Z,30.50
2022-12-03T23:21:30.113Z,29.23
2022-12-03T23:23:58.829Z,28.43
2022-12-03T23:26:27.409Z,29.60
2022-12-03T23:28:55.536Z,28.87
2022-12-03T23:31:25.484Z,29.90
2022-12-03T23:33:54.590Z,27.83
2022-12-03T23:36:25.777Z,27.03
2022-12-03T23:38:54.829Z,29.07
2022-12-03T23:41:24.799Z,29.40
2022-12-03T23:43:53.092Z,27.67
2022-12-03T23:46:23.588Z,29.37
2022-12-03T23:48:52.304Z,28.30
2022-12-03T23:51:24.315Z,28.23
2022-12-03T23:53:53.319Z,28.50
2022-12-03T23:56:23.059Z,29.30
2022-12-03T23:58:51.718Z,29.60
